»·PEaware :: CGHFO KSMO-KPSP

CGHFO :: KSMO-KPSP

FLIGHT INFORMATION

Flight Status: Arrived
Operator: Unknown
More flights by this operator :: More flights under this callsign
Pilot: Basie S. (26327)
Aircraft: BEECH AIRCRAFT DEBONAIR BONANZA
(BE33)
More flights by this aircraft type
Origin: KSMO Santa Monica Mun
United States
Destination: KPSP Palm Springs Intl
United States
More flights between these airports :: More routes between these airports
Route: SMO VNY V186 NIKKL V64 TRM
File this flight plan on PilotEdge
Remarks:
Altitude:
(Current/Filed)
11,000ft
Speed:
(Current/Filed)
155kts
Departed: 21-Nov-19 03:12 PM
Arrived: 21-Nov-19 04:20 PM
Distance/Time
Traveled:
97nm/1:08
Distance/Time
To Go:
Arrived

Flight Plot

Page will automatically refresh every two minutes.

Flight plan parsing failed; only flown route is shown


Map Options




Map Legend


Flown Route
Filed Route
Departure Airport
Arrival Airport
Navaid (VOR, NDB)
Fix

Horizontal Profiles

Position Reports

Time Latitude Longitude Heading Altitude Ground
Speed
21-Nov-19 14:17 34.013262 -118.451599 319 179ft 0kts
21-Nov-19 14:18 34.013262 -118.451599 319 179ft 0kts
21-Nov-19 14:19 34.013262 -118.451599 319 179ft 0kts
21-Nov-19 14:20 34.013262 -118.451599 319 179ft 0kts
21-Nov-19 14:21 34.013262 -118.451599 319 179ft 0kts
21-Nov-19 14:22 34.013262 -118.451599 319 179ft 0kts
21-Nov-19 14:23 34.013262 -118.451599 319 179ft 0kts
21-Nov-19 14:24 34.013262 -118.451599 319 179ft 0kts
21-Nov-19 14:25 34.013262 -118.451599 319 179ft 0kts
21-Nov-19 14:26 34.013262 -118.451599 319 179ft 0kts
21-Nov-19 14:27 34.013262 -118.451599 319 179ft 0kts
21-Nov-19 14:28 34.013262 -118.451599 319 179ft 0kts
21-Nov-19 14:29 34.013262 -118.451599 319 179ft 0kts
21-Nov-19 14:30 34.013262 -118.451599 319 179ft 0kts
21-Nov-19 14:31 34.013262 -118.451599 319 179ft 0kts
21-Nov-19 14:32 34.013262 -118.451599 319 179ft 0kts
21-Nov-19 14:33 34.013262 -118.451599 319 179ft 0kts
21-Nov-19 14:34 34.013262 -118.451599 319 179ft 0kts
21-Nov-19 14:35 34.013262 -118.451599 319 179ft 0kts
21-Nov-19 14:36 34.013262 -118.451599 319 179ft 0kts
21-Nov-19 14:37 34.013262 -118.451599 319 179ft 0kts
21-Nov-19 14:38 34.013262 -118.451599 319 179ft 0kts
21-Nov-19 14:39 34.013262 -118.451599 319 179ft 0kts
21-Nov-19 14:40 34.013262 -118.451599 319 179ft 0kts
21-Nov-19 14:41 34.013262 -118.451599 319 179ft 0kts
21-Nov-19 14:42 34.013262 -118.451599 319 179ft 0kts
21-Nov-19 14:43 34.013262 -118.451599 319 179ft 0kts
21-Nov-19 14:44 34.013262 -118.451599 319 179ft 0kts
21-Nov-19 14:45 34.013262 -118.451599 319 179ft 0kts
21-Nov-19 14:46 34.013262 -118.451599 319 179ft 0kts
21-Nov-19 14:47 34.013262 -118.451599 319 179ft 0kts
21-Nov-19 14:48 34.013262 -118.451599 319 179ft 0kts
21-Nov-19 14:49 34.013262 -118.451599 319 179ft 0kts
21-Nov-19 14:50 34.013262 -118.451599 319 179ft 0kts
21-Nov-19 14:51 34.013262 -118.451599 319 179ft 0kts
21-Nov-19 14:52 34.013262 -118.451599 319 179ft 0kts
21-Nov-19 14:53 34.013262 -118.451599 319 179ft 0kts
21-Nov-19 14:54 34.013262 -118.451599 319 179ft 0kts
21-Nov-19 14:55 34.013262 -118.451599 319 179ft 0kts
21-Nov-19 14:56 34.013262 -118.451599 319 179ft 0kts
21-Nov-19 14:57 34.013262 -118.451599 319 179ft 0kts
21-Nov-19 14:58 34.013262 -118.451599 319 179ft 0kts
21-Nov-19 14:59 34.013262 -118.451599 319 179ft 0kts
21-Nov-19 15:00 34.013262 -118.451599 319 179ft 0kts
21-Nov-19 15:01 34.013262 -118.451599 319 179ft 0kts
21-Nov-19 15:02 34.013408 -118.451721 337 179ft 3kts
21-Nov-19 15:03 34.014562 -118.450927 47 179ft 12kts
21-Nov-19 15:04 34.013754 -118.451921 224 178ft 16kts
21-Nov-19 15:05 34.012623 -118.453516 269 179ft 0kts
21-Nov-19 15:06 34.015351 -118.450711 46 179ft 24kts
21-Nov-19 15:07 34.019398 -118.445849 45 179ft 0kts
21-Nov-19 15:08 34.018829 -118.446727 285 179ft 4kts
21-Nov-19 15:09 34.018906 -118.446941 294 179ft 0kts
21-Nov-19 15:10 34.018911 -118.447676 228 179ft 2kts
21-Nov-19 15:11 34.004059 -118.466212 226 646ft 106kts
21-Nov-19 15:12 33.985504 -118.501013 261 1144ft 140kts
21-Nov-19 15:13 33.979833 -118.548845 260 1647ft 146kts
21-Nov-19 15:14 33.974161 -118.596955 261 2133ft 142kts
21-Nov-19 15:15 33.969120 -118.643683 261 2678ft 138kts
21-Nov-19 15:16 33.964356 -118.687981 261 3257ft 135kts
21-Nov-19 15:17 33.985224 -118.711797 7 3839ft 140kts
21-Nov-19 15:18 34.023134 -118.701153 11 4435ft 139kts
21-Nov-19 15:19 34.060529 -118.690256 11 5031ft 137kts
21-Nov-19 15:20 34.097093 -118.679605 11 5625ft 133kts
21-Nov-19 15:21 34.132549 -118.668710 25 6211ft 131kts
21-Nov-19 15:22 34.152182 -118.632462 58 6812ft 128kts
21-Nov-19 15:23 34.170235 -118.596222 56 7407ft 123kts
21-Nov-19 15:24 34.188518 -118.560561 56 8014ft 127kts
21-Nov-19 15:25 34.207153 -118.524077 56 8618ft 128kts
21-Nov-19 15:26 34.221508 -118.485921 102 9212ft 127kts
21-Nov-19 15:27 34.209465 -118.446032 110 9815ft 125kts
21-Nov-19 15:28 34.197361 -118.407244 110 10412ft 121kts
21-Nov-19 15:29 34.185744 -118.370156 109 10974ft 118kts
21-Nov-19 15:30 34.172702 -118.328582 110 10996ft 148kts
21-Nov-19 15:31 34.157454 -118.280186 110 10992ft 156kts
21-Nov-19 15:32 34.141918 -118.230858 110 10994ft 157kts
21-Nov-19 15:33 34.126324 -118.181389 110 10995ft 157kts
21-Nov-19 15:34 34.110655 -118.131760 110 10997ft 157kts
21-Nov-19 15:35 34.095002 -118.082262 110 10999ft 157kts
21-Nov-19 15:36 34.079363 -118.032892 110 11001ft 157kts
21-Nov-19 15:37 34.063677 -117.983455 110 11002ft 157kts
21-Nov-19 15:38 34.047975 -117.934046 110 11002ft 157kts
21-Nov-19 15:39 34.032246 -117.884637 110 11002ft 157kts
21-Nov-19 15:40 34.016525 -117.835257 110 11002ft 157kts
21-Nov-19 15:41 34.000883 -117.785875 110 11000ft 157kts
21-Nov-19 15:42 33.985313 -117.736439 106 10999ft 157kts
21-Nov-19 15:44 33.973618 -117.685613 110 11002ft 157kts
21-Nov-19 15:45 33.956930 -117.636795 112 11003ft 157kts
21-Nov-19 15:46 33.939553 -117.588261 112 11006ft 158kts
21-Nov-19 15:47 33.922226 -117.539648 112 11007ft 158kts
21-Nov-19 15:48 33.889685 -117.505666 144 11006ft 157kts
21-Nov-19 15:49 33.853802 -117.475212 145 11004ft 157kts
21-Nov-19 15:50 33.818321 -117.445460 145 11003ft 157kts
21-Nov-19 15:51 33.782218 -117.415243 145 11002ft 157kts
21-Nov-19 15:52 33.746305 -117.385215 145 11001ft 157kts
21-Nov-19 15:53 33.727898 -117.340675 95 11001ft 157kts
21-Nov-19 15:54 33.724232 -117.288084 94 11002ft 157kts
21-Nov-19 15:55 33.720189 -117.235452 95 11004ft 157kts
21-Nov-19 15:56 33.715958 -117.183115 95 11006ft 157kts
21-Nov-19 15:57 33.711664 -117.130455 95 11008ft 157kts
21-Nov-19 15:58 33.707342 -117.078833 95 11008ft 158kts
21-Nov-19 15:59 33.702913 -117.025855 95 11008ft 160kts
21-Nov-19 16:00 33.698453 -116.972039 95 11009ft 162kts
21-Nov-19 16:01 33.693920 -116.917593 95 11009ft 164kts
21-Nov-19 16:01 33.690082 -116.871737 95 11009ft 166kts
21-Nov-19 16:03 33.684619 -116.806862 95 11007ft 168kts
21-Nov-19 16:04 33.679889 -116.750983 94 11005ft 168kts
21-Nov-19 16:04 33.675925 -116.704377 94 11003ft 168kts
21-Nov-19 16:06 33.670360 -116.639346 94 11000ft 167kts
21-Nov-19 16:06 33.666364 -116.592874 94 10998ft 167kts
21-Nov-19 16:07 33.661448 -116.536170 94 10731ft 180kts
21-Nov-19 16:09 33.655142 -116.463573 94 9943ft 190kts
21-Nov-19 16:09 33.650565 -116.411339 96 9360ft 189kts
21-Nov-19 16:10 33.645014 -116.348329 97 8676ft 188kts
21-Nov-19 16:12 33.638679 -116.276757 97 7844ft 182kts
21-Nov-19 16:12 33.658901 -116.245264 336 7237ft 166kts
21-Nov-19 16:13 33.692530 -116.281267 312 6495ft 164kts
21-Nov-19 16:14 33.725512 -116.319330 312 5696ft 166kts
21-Nov-19 16:15 33.757258 -116.360189 301 4896ft 168kts
21-Nov-19 16:16 33.782079 -116.408178 275 4101ft 168kts
21-Nov-19 16:17 33.788621 -116.460385 281 3839ft 150kts
21-Nov-19 16:18 33.811769 -116.491950 326 867ft 105kts
21-Nov-19 16:19 33.827344 -116.505582 321 481ft 32kts
21-Nov-19 16:20 33.828836 -116.508125 273 481ft 0kts
21-Nov-19 16:21 33.828836 -116.508125 273 481ft 0kts
21-Nov-19 16:22 33.828630 -116.509751 270 481ft 19kts

Navigation Log

Ident Type
Flight plan parsing failed, navigation log unavailable